Terminal Aerodrome Forecast
Issued by NWS

Home | Current Version | Previous Version | Text Only | Print | Product List | Glossary On
Versions: 1 2 3 4 5 6 7 8 9 10 11 12 13 14 15 16 17 18 19 20 21
000
FTUS41 KCLE 181600 AAA
TAFFDY
TAF AMD
KFDY 181636Z 1817/1912 27008KT P6SM OVC018
      TEMPO 1819/1823 5SM -SN OVC015
     FM190300 28005KT P6SM OVC025=

USA.gov is the U.S. government's official web portal to all federal, state and local government web resources and services.